createdAt,value
2023-03-20T00:03:57.826Z,99.90
2023-03-20T00:09:07.427Z,99.90
2023-03-20T00:14:13.801Z,99.90
2023-03-20T00:19:20.844Z,99.90
2023-03-20T00:24:25.292Z,99.90
2023-03-20T00:29:31.286Z,99.90
2023-03-20T00:34:35.965Z,99.90
2023-03-20T00:39:39.227Z,99.90
2023-03-20T00:44:49.691Z,99.90
2023-03-20T00:49:55.978Z,99.90
2023-03-20T00:54:59.286Z,99.90
2023-03-20T01:00:05.418Z,99.90
2023-03-20T01:05:10.453Z,99.90
2023-03-20T01:10:14.869Z,99.90
2023-03-20T01:15:23.715Z,99.90
2023-03-20T01:20:30.670Z,99.90
2023-03-20T01:25:34.244Z,99.90
2023-03-20T01:30:37.615Z,99.90
2023-03-20T01:35:42.361Z,99.90
2023-03-20T01:40:54.327Z,99.90
2023-03-20T01:46:02.951Z,99.90
2023-03-20T01:51:10.495Z,99.90
2023-03-20T01:56:15.565Z,99.90
2023-03-20T02:01:27.683Z,99.90
2023-03-20T02:06:33.471Z,99.90
2023-03-20T02:11:52.402Z,99.90
2023-03-20T02:16:57.163Z,99.90
2023-03-20T02:22:47.519Z,99.90
2023-03-20T02:28:24.839Z,99.90
2023-03-20T02:34:00.640Z,99.90
2023-03-20T02:39:29.161Z,99.90
2023-03-20T02:44:39.282Z,99.90
2023-03-20T02:49:58.047Z,99.90
2023-03-20T02:55:15.967Z,99.90
2023-03-20T03:00:28.470Z,99.90
2023-03-20T03:05:37.765Z,99.90
2023-03-20T03:10:46.569Z,99.90
2023-03-20T03:15:52.562Z,99.90
2023-03-20T03:20:59.417Z,99.90
2023-03-20T03:26:08.145Z,99.90
2023-03-20T03:31:17.623Z,99.90
2023-03-20T03:36:28.408Z,99.90
2023-03-20T03:41:37.450Z,99.90
2023-03-20T03:46:46.455Z,99.90
2023-03-20T03:51:54.652Z,99.90
2023-03-20T03:57:01.747Z,99.90
2023-03-20T04:02:08.555Z,99.90
2023-03-20T04:07:12.211Z,99.90
2023-03-20T04:12:34.886Z,99.90
2023-03-20T04:17:38.677Z,99.90
2023-03-20T04:22:42.948Z,99.90
2023-03-20T04:27:50.772Z,99.90
2023-03-20T04:33:17.204Z,99.90
2023-03-20T04:38:43.113Z,99.90
2023-03-20T04:43:48.095Z,99.90
2023-03-20T04:48:51.789Z,99.90
2023-03-20T04:53:56.254Z,99.90
2023-03-20T04:59:01.378Z,99.90
2023-03-20T05:04:06.210Z,99.90
2023-03-20T05:09:10.480Z,99.90
2023-03-20T05:14:15.963Z,99.90
2023-03-20T05:19:28.524Z,99.90
2023-03-20T05:24:57.258Z,99.90
2023-03-20T05:30:14.646Z,99.90
2023-03-20T05:35:36.300Z,99.90
2023-03-20T05:40:49.601Z,99.90
2023-03-20T05:45:56.978Z,99.90
2023-03-20T05:51:32.368Z,99.90
2023-03-20T05:56:52.557Z,99.90
2023-03-20T06:02:08.660Z,99.90
2023-03-20T06:07:14.748Z,99.90
2023-03-20T06:12:21.540Z,99.90
2023-03-20T06:17:26.345Z,99.90
2023-03-20T06:22:36.494Z,99.90
2023-03-20T06:27:40.071Z,99.90
2023-03-20T06:32:45.130Z,99.90
2023-03-20T06:37:50.254Z,99.90
2023-03-20T06:42:58.900Z,99.90
2023-03-20T06:48:13.490Z,99.90
2023-03-20T06:53:17.022Z,99.90
2023-03-20T06:58:36.760Z,99.90
2023-03-20T07:03:42.112Z,99.90
2023-03-20T07:08:46.547Z,99.90
2023-03-20T07:13:50.313Z,99.90
2023-03-20T07:19:15.976Z,99.90
2023-03-20T07:24:22.070Z,99.90
2023-03-20T07:29:25.549Z,99.90
2023-03-20T07:34:30.730Z,99.90
2023-03-20T07:39:35.582Z,99.90
2023-03-20T07:44:58.710Z,99.90
2023-03-20T07:50:04.547Z,99.90
2023-03-20T07:55:09.551Z,99.90
2023-03-20T08:00:15.278Z,99.90
2023-03-20T08:05:20.069Z,99.90
2023-03-20T08:10:23.391Z,99.90
2023-03-20T08:15:26.620Z,99.90
2023-03-20T08:20:31.786Z,99.90
2023-03-20T08:25:35.398Z,99.90
2023-03-20T08:30:39.084Z,99.90
2023-03-20T08:35:44.537Z,99.90
2023-03-20T08:40:48.256Z,99.90
2023-03-20T08:45:51.886Z,99.90
2023-03-20T08:50:56.589Z,99.90
2023-03-20T08:55:59.824Z,99.90
2023-03-20T09:01:06.485Z,99.90
2023-03-20T09:06:12.269Z,99.90
2023-03-20T09:11:15.564Z,99.90
2023-03-20T09:16:19.018Z,99.90
2023-03-20T09:21:23.720Z,99.90
2023-03-20T09:26:27.046Z,99.90
2023-03-20T09:31:30.308Z,99.90
2023-03-20T09:36:35.045Z,99.90
2023-03-20T09:41:53.132Z,99.90
2023-03-20T09:47:19.941Z,99.90
2023-03-20T09:52:29.595Z,99.90
2023-03-20T09:57:40.552Z,99.90
2023-03-20T10:02:51.189Z,99.90
2023-03-20T10:07:56.782Z,99.90
2023-03-20T10:13:05.490Z,99.90
2023-03-20T10:18:18.010Z,99.90
2023-03-20T10:23:28.443Z,99.90
2023-03-20T10:28:39.444Z,99.90
2023-03-20T10:33:55.987Z,99.90
2023-03-20T10:39:06.730Z,99.90
2023-03-20T10:44:15.990Z,99.90
2023-03-20T10:49:22.471Z,99.90
2023-03-20T10:54:29.598Z,99.90
2023-03-20T10:59:39.183Z,99.90
2023-03-20T11:04:42.664Z,99.90
2023-03-20T11:09:47.245Z,99.90
2023-03-20T11:14:50.453Z,99.90
2023-03-20T11:19:53.646Z,99.90
2023-03-20T11:25:02.598Z,99.90
2023-03-20T11:30:08.690Z,99.90
2023-03-20T11:35:19.551Z,99.90
2023-03-20T11:40:30.595Z,99.90
2023-03-20T11:45:38.084Z,99.90
2023-03-20T11:50:47.207Z,99.90
2023-03-20T11:56:04.832Z,99.90
2023-03-20T12:01:13.383Z,99.90
2023-03-20T12:06:19.974Z,99.90
2023-03-20T12:11:39.468Z,99.90
2023-03-20T12:16:46.771Z,99.90
2023-03-20T12:21:56.773Z,99.90
2023-03-20T12:27:14.251Z,99.90
2023-03-20T12:32:22.683Z,99.90
2023-03-20T12:37:26.119Z,99.90
2023-03-20T12:42:43.444Z,99.90
2023-03-20T12:47:58.348Z,99.90
2023-03-20T12:53:19.686Z,99.90
2023-03-20T12:58:30.831Z,99.90
2023-03-20T13:03:49.547Z,99.90
2023-03-20T13:09:19.384Z,99.90
2023-03-20T13:14:30.087Z,99.90
2023-03-20T13:19:39.353Z,99.90
2023-03-20T13:24:46.458Z,99.90
2023-03-20T13:29:56.246Z,99.90
2023-03-20T13:35:14.866Z,99.90
2023-03-20T13:40:23.768Z,99.90
2023-03-20T13:45:36.647Z,99.90
2023-03-20T13:50:47.355Z,99.90
2023-03-20T13:55:57.440Z,99.90
2023-03-20T14:01:09.176Z,99.90
2023-03-20T14:06:46.684Z,99.90
2023-03-20T14:11:50.212Z,99.90
2023-03-20T14:17:04.677Z,99.90
2023-03-20T14:22:10.601Z,99.90
2023-03-20T14:27:29.920Z,99.90
2023-03-20T14:32:59.264Z,99.90
2023-03-20T14:38:16.489Z,99.60
2023-03-20T14:43:31.359Z,99.10
2023-03-20T14:48:43.220Z,98.60
2023-03-20T14:53:55.070Z,98.10
2023-03-20T14:59:03.061Z,97.50
2023-03-20T15:04:10.681Z,97.30
2023-03-20T15:09:15.037Z,97.30
2023-03-20T15:14:24.013Z,97.00
2023-03-20T15:19:29.623Z,96.80
2023-03-20T15:24:33.384Z,96.80
2023-03-20T15:29:37.084Z,97.10
2023-03-20T15:34:44.469Z,97.40
2023-03-20T15:39:50.739Z,97.80
2023-03-20T15:44:56.235Z,98.10
2023-03-20T15:50:02.925Z,98.30
2023-03-20T15:55:09.212Z,98.90
2023-03-20T16:00:18.752Z,99.60
2023-03-20T16:05:27.960Z,99.90
2023-03-20T16:10:35.735Z,99.90
2023-03-20T16:15:40.620Z,99.90
2023-03-20T16:20:50.757Z,99.90
2023-03-20T16:25:59.502Z,99.90
2023-03-20T16:31:10.689Z,99.90
2023-03-20T16:36:20.964Z,99.90
2023-03-20T16:41:31.031Z,99.90
2023-03-20T16:46:34.723Z,99.90
2023-03-20T16:51:40.048Z,99.90
2023-03-20T16:56:43.747Z,99.90
2023-03-20T17:01:49.168Z,99.90
2023-03-20T17:06:56.094Z,99.90
2023-03-20T17:12:04.568Z,99.90
2023-03-20T17:17:13.416Z,99.90
2023-03-20T17:22:20.647Z,99.90
2023-03-20T17:27:24.977Z,99.90
2023-03-20T17:32:30.267Z,99.90
2023-03-20T17:37:35.221Z,99.90
2023-03-20T17:42:39.425Z,99.90
2023-03-20T17:47:44.652Z,99.90
2023-03-20T17:52:49.192Z,99.90
2023-03-20T17:57:52.395Z,99.90
2023-03-20T18:02:55.596Z,99.90
2023-03-20T18:08:00.258Z,99.90
2023-03-20T18:13:03.441Z,99.90
2023-03-20T18:18:07.825Z,99.90
2023-03-20T18:23:12.913Z,99.90
2023-03-20T18:28:22.623Z,99.90
2023-03-20T18:33:28.093Z,99.90
2023-03-20T18:38:33.050Z,99.90
2023-03-20T18:43:36.387Z,99.90
2023-03-20T18:48:39.956Z,99.90
2023-03-20T18:53:44.847Z,99.90
2023-03-20T18:58:49.178Z,99.90
2023-03-20T19:03:53.847Z,99.90
2023-03-20T19:08:58.796Z,99.90
2023-03-20T19:14:01.984Z,99.90
2023-03-20T19:19:07.219Z,99.90
2023-03-20T19:24:12.081Z,99.90
2023-03-20T19:29:15.453Z,99.90
2023-03-20T19:35:04.563Z,99.90
2023-03-20T19:39:45.334Z,99.90
2023-03-20T19:44:48.526Z,99.90
2023-03-20T19:49:51.843Z,99.90
2023-03-20T19:55:03.014Z,99.90
2023-03-20T20:05:33.037Z,99.90
2023-03-20T20:10:41.152Z,99.90
2023-03-20T20:15:45.154Z,99.90
2023-03-20T20:26:16.124Z,99.90
2023-03-20T20:31:19.792Z,99.90
2023-03-20T20:41:48.793Z,99.90
2023-03-20T20:46:52.042Z,99.90
2023-03-20T20:51:55.403Z,99.90
2023-03-20T20:57:00.336Z,99.90
2023-03-20T21:02:10.500Z,99.90
2023-03-20T21:07:14.753Z,99.90
2023-03-20T21:12:34.778Z,99.90
2023-03-20T21:17:50.466Z,99.90
2023-03-20T21:23:02.350Z,99.90
2023-03-20T21:28:07.690Z,99.90
2023-03-20T21:33:11.334Z,99.90
2023-03-20T21:43:39.609Z,99.90
2023-03-20T21:49:24.632Z,99.90
2023-03-20T22:00:31.667Z,99.90
2023-03-20T22:42:57.364Z,99.90
2023-03-20T22:48:08.921Z,99.90
2023-03-20T22:53:12.275Z,99.90
2023-03-20T22:58:17.683Z,99.90
2023-03-20T23:03:39.955Z,99.90
2023-03-20T23:08:50.705Z,99.90
2023-03-20T23:13:57.618Z,99.90
2023-03-20T23:19:02.348Z,99.90
2023-03-20T23:24:06.155Z,99.90
2023-03-20T23:29:09.845Z,99.90
2023-03-20T23:34:17.414Z,99.90
2023-03-20T23:39:21.279Z,99.90
2023-03-20T23:44:24.435Z,99.90
2023-03-20T23:49:28.978Z,99.90
2023-03-20T23:54:32.137Z,99.90
2023-03-20T23:59:37.231Z,99.90
